createdAt,value
2019-01-16T00:00:34.751Z,998.04
2019-01-16T00:01:36.159Z,998.06
2019-01-16T00:02:37.550Z,998.07
2019-01-16T00:03:38.937Z,997.98
2019-01-16T00:04:40.326Z,998.00
2019-01-16T00:05:42.597Z,998.05
2019-01-16T00:06:43.973Z,998.00
2019-01-16T00:07:45.374Z,998.04
2019-01-16T00:08:46.758Z,998.09
2019-01-16T00:09:48.147Z,997.98
2019-01-16T00:10:49.529Z,997.99
2019-01-16T00:11:50.920Z,997.99
2019-01-16T00:12:52.305Z,998.05
2019-01-16T00:13:53.689Z,998.01
2019-01-16T00:14:55.067Z,997.99
2019-01-16T00:15:56.450Z,998.06
2019-01-16T00:16:57.821Z,998.05
2019-01-16T00:17:59.656Z,998.05
2019-01-16T00:19:00.549Z,998.06
2019-01-16T00:20:01.937Z,998.07
2019-01-16T00:21:03.315Z,998.05
2019-01-16T00:22:04.703Z,998.04
2019-01-16T00:23:06.081Z,998.06
2019-01-16T00:24:07.461Z,998.08
2019-01-16T00:25:08.880Z,998.06
2019-01-16T00:26:10.222Z,998.03
2019-01-16T00:27:11.599Z,998.06
2019-01-16T00:28:12.977Z,998.06
2019-01-16T00:29:14.359Z,998.12
2019-01-16T00:30:15.739Z,998.10
2019-01-16T00:31:17.124Z,998.07
2019-01-16T00:32:18.495Z,998.07
2019-01-16T00:33:19.880Z,998.12
2019-01-16T00:34:21.271Z,998.08
2019-01-16T00:35:22.655Z,998.05
2019-01-16T00:36:24.031Z,998.09
2019-01-16T00:37:25.413Z,998.02
2019-01-16T00:38:26.790Z,998.06
2019-01-16T00:39:28.170Z,998.03
2019-01-16T00:40:29.544Z,998.08
2019-01-16T00:41:30.930Z,998.07
2019-01-16T00:42:32.314Z,998.01
2019-01-16T00:43:33.701Z,998.07
2019-01-16T00:44:35.084Z,998.07
2019-01-16T00:45:36.462Z,998.09
2019-01-16T00:46:37.842Z,998.11
2019-01-16T00:47:39.225Z,998.13
2019-01-16T00:48:40.606Z,998.13
2019-01-16T00:49:41.990Z,998.07
2019-01-16T00:50:43.372Z,998.12
2019-01-16T00:51:44.749Z,998.08
2019-01-16T00:52:46.125Z,998.16
2019-01-16T00:53:47.503Z,998.16
2019-01-16T00:54:48.886Z,998.17
2019-01-16T00:55:50.259Z,998.15
2019-01-16T00:56:51.641Z,998.23
2019-01-16T00:57:53.019Z,998.20
2019-01-16T00:58:54.427Z,998.26
2019-01-16T00:59:55.781Z,998.27
2019-01-16T01:00:57.162Z,998.25
2019-01-16T01:01:58.542Z,998.26
2019-01-16T01:02:59.924Z,998.29
2019-01-16T01:04:01.304Z,998.28
2019-01-16T01:05:02.680Z,998.28
2019-01-16T01:06:04.067Z,998.31
2019-01-16T01:07:05.450Z,998.31
2019-01-16T01:08:06.830Z,998.34
2019-01-16T01:09:08.210Z,998.40
2019-01-16T01:10:09.588Z,998.38
2019-01-16T01:11:10.965Z,998.40
2019-01-16T01:12:12.347Z,998.41
2019-01-16T01:13:13.740Z,998.41
2019-01-16T01:14:15.121Z,998.40
2019-01-16T01:15:16.497Z,998.38
2019-01-16T01:16:17.879Z,998.39
2019-01-16T01:17:19.252Z,998.40
2019-01-16T01:18:20.645Z,998.38
2019-01-16T01:19:22.023Z,998.40
2019-01-16T01:20:23.417Z,998.42
2019-01-16T01:21:24.790Z,998.44
2019-01-16T01:22:26.174Z,998.42
2019-01-16T01:23:27.547Z,998.36
2019-01-16T01:24:28.929Z,998.41
2019-01-16T01:25:30.305Z,998.43
2019-01-16T01:26:31.687Z,998.47
2019-01-16T01:27:33.071Z,998.48
2019-01-16T01:28:34.444Z,998.40
2019-01-16T01:29:35.827Z,998.46
2019-01-16T01:30:37.208Z,998.49
2019-01-16T01:31:38.603Z,998.52
2019-01-16T01:32:39.987Z,998.53
2019-01-16T01:33:41.367Z,998.58
2019-01-16T01:34:42.790Z,998.59
2019-01-16T01:35:44.172Z,998.60
2019-01-16T01:36:45.566Z,998.61
2019-01-16T01:37:46.952Z,998.63
2019-01-16T01:38:48.346Z,998.61
2019-01-16T01:39:49.725Z,998.61
2019-01-16T01:40:51.112Z,998.71
2019-01-16T01:41:52.488Z,998.65
2019-01-16T01:42:53.872Z,998.69
2019-01-16T01:43:55.256Z,998.71
2019-01-16T01:44:56.631Z,998.73
2019-01-16T01:45:58.016Z,998.74
2019-01-16T01:46:59.392Z,998.79
2019-01-16T01:48:00.778Z,998.73
2019-01-16T01:49:02.160Z,998.78
2019-01-16T01:50:03.533Z,998.77
2019-01-16T01:51:04.914Z,998.79
2019-01-16T01:52:06.300Z,998.79
2019-01-16T01:53:07.695Z,998.78
2019-01-16T01:54:09.092Z,998.78
2019-01-16T01:55:10.482Z,998.80
2019-01-16T01:56:11.863Z,998.76
2019-01-16T01:57:13.245Z,998.81
2019-01-16T01:58:14.616Z,998.80
2019-01-16T01:59:15.993Z,998.79
2019-01-16T02:00:17.378Z,998.80
2019-01-16T02:01:18.755Z,998.88
2019-01-16T02:02:20.137Z,998.87
2019-01-16T02:03:21.521Z,998.83
2019-01-16T02:04:22.900Z,998.88
2019-01-16T02:05:24.275Z,998.92
2019-01-16T02:06:25.663Z,998.90
2019-01-16T02:07:27.046Z,998.94
2019-01-16T02:08:28.426Z,998.97
2019-01-16T02:09:29.806Z,998.95
2019-01-16T02:10:31.188Z,998.98
2019-01-16T02:11:32.564Z,998.98
2019-01-16T02:12:33.950Z,998.95
2019-01-16T02:13:35.295Z,998.98
2019-01-16T02:14:36.682Z,998.96
2019-01-16T02:15:38.065Z,999.02
2019-01-16T02:16:39.444Z,999.01
2019-01-16T02:17:40.823Z,999.05
2019-01-16T02:18:47.327Z,999.06
2019-01-16T02:19:43.551Z,999.05
2019-01-16T02:20:44.932Z,999.01
2019-01-16T02:21:46.319Z,999.00
2019-01-16T02:22:47.692Z,999.09
2019-01-16T02:23:49.079Z,999.07
2019-01-16T02:24:50.463Z,999.00
2019-01-16T02:25:51.853Z,999.04
2019-01-16T02:26:53.229Z,999.06
2019-01-16T02:27:54.617Z,999.04
2019-01-16T02:28:56.005Z,999.01
2019-01-16T02:29:57.387Z,999.04
2019-01-16T02:30:58.781Z,999.07
2019-01-16T02:32:00.157Z,999.01
2019-01-16T02:33:01.544Z,999.10
2019-01-16T02:34:02.924Z,999.12
2019-01-16T02:35:04.304Z,999.11
2019-01-16T02:36:05.682Z,999.09
2019-01-16T02:37:07.081Z,999.07
2019-01-16T02:38:08.454Z,999.05
2019-01-16T02:39:09.828Z,999.10
2019-01-16T02:40:11.213Z,999.07
2019-01-16T02:41:12.592Z,999.08
2019-01-16T02:42:13.971Z,999.04
2019-01-16T02:43:15.358Z,999.03
2019-01-16T02:44:16.743Z,999.05
2019-01-16T02:45:18.121Z,999.06
2019-01-16T02:46:19.494Z,999.06
2019-01-16T02:47:20.873Z,999.09
2019-01-16T02:48:22.256Z,999.05
2019-01-16T02:49:23.634Z,999.04
2019-01-16T02:50:25.013Z,999.02
2019-01-16T02:51:26.407Z,999.07
2019-01-16T02:52:27.788Z,999.03
2019-01-16T02:53:29.180Z,999.01
2019-01-16T02:54:30.553Z,998.98
2019-01-16T02:55:31.931Z,999.00
2019-01-16T02:56:33.309Z,999.02
2019-01-16T02:57:34.693Z,998.99
2019-01-16T02:58:36.076Z,998.99
2019-01-16T02:59:37.460Z,999.00
2019-01-16T03:00:38.849Z,998.97
2019-01-16T03:01:40.925Z,998.95
2019-01-16T03:02:42.295Z,999.02
2019-01-16T03:03:43.678Z,999.01
2019-01-16T03:04:45.051Z,999.00
2019-01-16T03:05:46.435Z,998.93
2019-01-16T03:06:47.816Z,998.91
2019-01-16T03:07:49.204Z,998.91
2019-01-16T03:08:51.294Z,998.94
2019-01-16T03:09:52.681Z,998.92
2019-01-16T03:10:54.063Z,998.87
2019-01-16T03:11:55.440Z,998.88
2019-01-16T03:12:56.828Z,998.87
2019-01-16T03:13:58.209Z,998.87
2019-01-16T03:14:59.588Z,998.91
2019-01-16T03:16:00.963Z,998.93
2019-01-16T03:17:02.343Z,998.90
2019-01-16T03:18:03.727Z,998.96
2019-01-16T03:19:05.117Z,998.99
2019-01-16T03:20:06.494Z,998.98
2019-01-16T03:21:07.873Z,999.04
2019-01-16T03:22:09.265Z,999.04
2019-01-16T03:23:10.655Z,999.04
2019-01-16T03:24:12.041Z,999.03
2019-01-16T03:25:13.419Z,999.05
2019-01-16T03:26:14.803Z,999.04
2019-01-16T03:27:16.191Z,999.03
2019-01-16T03:28:17.575Z,999.07
2019-01-16T03:29:18.972Z,998.96
2019-01-16T03:30:20.359Z,998.98
2019-01-16T03:31:21.731Z,998.97
2019-01-16T03:32:23.117Z,998.96
2019-01-16T03:33:24.505Z,998.94
2019-01-16T03:34:25.887Z,998.95
2019-01-16T03:35:27.282Z,998.97
2019-01-16T03:36:28.670Z,998.94
2019-01-16T03:37:30.046Z,999.02
2019-01-16T03:38:31.452Z,998.98
2019-01-16T03:39:32.825Z,998.94
2019-01-16T03:40:34.232Z,998.94
2019-01-16T03:41:35.613Z,998.98
2019-01-16T03:42:37.013Z,998.93
2019-01-16T03:43:38.393Z,998.90
2019-01-16T03:44:39.787Z,998.94
2019-01-16T03:45:41.159Z,998.98
2019-01-16T03:46:42.576Z,999.02
2019-01-16T03:47:43.946Z,998.96
2019-01-16T03:48:45.334Z,999.00
2019-01-16T03:49:46.725Z,999.04
2019-01-16T03:50:48.124Z,999.04
2019-01-16T03:51:49.499Z,999.05
2019-01-16T03:52:50.909Z,998.96
2019-01-16T03:53:52.281Z,999.03
2019-01-16T03:54:54.433Z,999.01
2019-01-16T03:55:55.827Z,998.99
2019-01-16T03:56:57.198Z,999.00
2019-01-16T03:57:58.588Z,999.04
2019-01-16T03:58:59.978Z,998.99
2019-01-16T04:00:01.360Z,999.03
2019-01-16T04:01:02.748Z,999.04
2019-01-16T04:02:04.136Z,998.97
2019-01-16T04:03:05.510Z,998.96
2019-01-16T04:04:06.892Z,998.93
2019-01-16T04:05:08.284Z,998.92
2019-01-16T04:06:09.662Z,998.96
2019-01-16T04:07:11.046Z,998.96
2019-01-16T04:08:12.446Z,998.96
2019-01-16T04:09:13.844Z,998.96
2019-01-16T04:10:15.249Z,998.97
2019-01-16T04:11:16.624Z,998.97
2019-01-16T04:12:18.010Z,998.94
2019-01-16T04:13:19.402Z,998.91
2019-01-16T04:14:20.780Z,998.92
2019-01-16T04:15:22.175Z,998.91
2019-01-16T04:16:23.575Z,998.94
2019-01-16T04:17:25.104Z,998.93
2019-01-16T04:18:26.315Z,998.87
2019-01-16T04:19:27.695Z,998.86
2019-01-16T04:20:29.077Z,998.86
2019-01-16T04:21:30.454Z,998.91
2019-01-16T04:22:31.852Z,998.90
2019-01-16T04:23:33.237Z,998.94
2019-01-16T04:24:34.635Z,998.84
2019-01-16T04:25:36.008Z,998.84
2019-01-16T04:26:37.415Z,998.82
2019-01-16T04:27:38.822Z,998.84
2019-01-16T04:28:40.223Z,998.87
2019-01-16T04:29:41.620Z,998.84
2019-01-16T04:30:43.052Z,998.83
2019-01-16T04:31:44.488Z,998.83
2019-01-16T04:32:45.886Z,998.79
2019-01-16T04:33:47.311Z,998.80
2019-01-16T04:34:48.760Z,998.82
2019-01-16T04:35:50.173Z,998.80
2019-01-16T04:36:51.582Z,998.78
2019-01-16T04:37:52.979Z,998.82
2019-01-16T04:38:54.450Z,998.77
2019-01-16T04:39:55.804Z,998.75
2019-01-16T04:40:57.195Z,998.74
2019-01-16T04:41:58.593Z,998.76
2019-01-16T04:42:59.977Z,998.67
2019-01-16T04:44:01.394Z,998.70
2019-01-16T04:45:02.769Z,998.75
2019-01-16T04:46:04.179Z,998.74
2019-01-16T04:47:05.581Z,998.74
2019-01-16T04:48:06.986Z,998.70
2019-01-16T04:49:08.404Z,998.74
2019-01-16T04:50:09.785Z,998.71
2019-01-16T04:51:11.157Z,998.69
2019-01-16T04:52:12.553Z,998.71
2019-01-16T04:53:13.956Z,998.71
2019-01-16T04:54:15.327Z,998.72
2019-01-16T04:55:16.721Z,998.70
2019-01-16T04:56:18.116Z,998.66
2019-01-16T04:57:19.498Z,998.66
2019-01-16T04:58:20.878Z,998.72
2019-01-16T04:59:22.277Z,998.70
2019-01-16T05:00:23.675Z,998.64
2019-01-16T05:01:25.064Z,998.66
2019-01-16T05:02:26.476Z,998.66
2019-01-16T05:03:27.866Z,998.63
2019-01-16T05:04:29.825Z,998.66
2019-01-16T05:05:31.230Z,998.69
2019-01-16T05:06:32.613Z,998.68
2019-01-16T05:07:34.009Z,998.64
2019-01-16T05:08:35.406Z,998.66
2019-01-16T05:09:36.808Z,998.66
2019-01-16T05:10:38.190Z,998.70
2019-01-16T05:11:39.587Z,998.68
2019-01-16T05:12:40.987Z,998.67
2019-01-16T05:13:42.381Z,998.65
2019-01-16T05:14:43.782Z,998.63
2019-01-16T05:15:45.173Z,998.64
2019-01-16T05:16:46.555Z,998.69
2019-01-16T05:17:47.973Z,998.68
2019-01-16T05:18:50.079Z,998.65
2019-01-16T05:19:51.449Z,998.69
2019-01-16T05:20:52.839Z,998.67
2019-01-16T05:21:54.210Z,998.67
2019-01-16T05:22:55.619Z,998.68
2019-01-16T05:23:57.019Z,998.69
2019-01-16T05:24:58.419Z,998.67
2019-01-16T05:25:59.806Z,998.65
2019-01-16T05:27:01.194Z,998.66
2019-01-16T05:28:02.583Z,998.71
2019-01-16T05:29:03.993Z,998.64
2019-01-16T05:30:06.340Z,998.69
2019-01-16T05:31:07.734Z,998.67
2019-01-16T05:32:09.104Z,998.62
2019-01-16T05:33:10.515Z,998.65
2019-01-16T05:34:11.933Z,998.72
2019-01-16T05:35:13.305Z,998.63
2019-01-16T05:36:14.675Z,998.71
2019-01-16T05:37:16.068Z,998.75
2019-01-16T05:38:17.453Z,998.77
2019-01-16T05:39:18.845Z,998.69
2019-01-16T05:40:20.223Z,998.72
2019-01-16T05:41:21.616Z,998.71
2019-01-16T05:42:22.997Z,998.77
2019-01-16T18:45:33.365Z,994.10
2019-01-16T18:46:34.746Z,994.14
2019-01-16T18:47:36.144Z,994.08
2019-01-16T18:48:37.557Z,994.10
2019-01-16T18:49:38.953Z,994.15
2019-01-16T18:50:40.361Z,994.12
2019-01-16T18:51:41.757Z,994.04
2019-01-16T18:52:43.148Z,994.06
2019-01-16T18:53:45.545Z,994.06
2019-01-16T18:54:46.937Z,994.07
2019-01-16T18:55:48.332Z,994.04
2019-01-16T18:56:50.242Z,993.99
2019-01-16T18:57:52.921Z,994.03
2019-01-16T18:58:54.298Z,994.02
2019-01-16T18:59:55.720Z,994.03
2019-01-16T19:00:57.224Z,994.04
2019-01-16T19:01:58.620Z,994.03
2019-01-16T19:03:00.020Z,993.95
2019-01-16T19:04:01.424Z,993.90
2019-01-16T19:05:02.852Z,993.96
2019-01-16T19:06:04.258Z,993.89
2019-01-16T19:07:05.655Z,993.89
2019-01-16T19:08:07.074Z,993.97
2019-01-16T19:09:08.507Z,993.91
2019-01-16T19:10:10.291Z,993.96
2019-01-16T19:11:11.670Z,993.95
2019-01-16T19:12:13.085Z,993.94
2019-01-16T19:13:14.477Z,993.94
2019-01-16T19:14:15.903Z,993.95
2019-01-16T19:15:17.469Z,993.92
2019-01-16T19:16:18.871Z,993.95
2019-01-16T19:17:20.988Z,993.91
2019-01-16T19:18:22.421Z,993.95
2019-01-16T19:19:24.694Z,993.90
2019-01-16T19:20:26.799Z,993.95
2019-01-16T19:21:28.237Z,993.84
2019-01-16T19:22:30.357Z,993.90
2019-01-16T19:23:32.465Z,993.83
2019-01-16T19:24:33.886Z,993.81
2019-01-16T19:25:35.293Z,993.79
2019-01-16T19:26:37.223Z,993.79
2019-01-16T19:27:40.901Z,993.80
2019-01-16T19:28:43.102Z,993.77
2019-01-16T19:29:44.542Z,993.87
2019-01-16T19:30:45.947Z,993.76
2019-01-16T19:31:47.929Z,993.81
2019-01-16T19:32:49.835Z,993.86
2019-01-16T19:33:50.714Z,993.85
2019-01-16T19:34:52.834Z,993.85
2019-01-16T19:35:55.314Z,993.80
2019-01-16T19:36:56.718Z,993.82
2019-01-16T19:37:58.701Z,993.79
2019-01-16T19:39:02.686Z,993.80
2019-01-16T19:40:04.996Z,993.78
2019-01-16T19:41:07.270Z,993.90
2019-01-16T19:42:08.678Z,993.77
2019-01-16T19:43:10.092Z,993.75
2019-01-16T19:44:11.499Z,993.72
2019-01-16T19:45:13.507Z,993.68
2019-01-16T19:46:14.911Z,993.76
2019-01-16T19:47:17.020Z,993.70
2019-01-16T19:48:18.479Z,993.69
2019-01-16T19:49:20.460Z,993.65
2019-01-16T19:50:23.415Z,993.66
2019-01-16T19:51:25.748Z,993.65
2019-01-16T19:52:27.909Z,993.61
2019-01-16T19:53:30.930Z,993.57
2019-01-16T19:54:33.754Z,993.67
2019-01-16T19:55:35.161Z,993.64
2019-01-16T19:56:39.210Z,993.54
2019-01-16T19:57:40.621Z,993.56
2019-01-16T19:58:42.030Z,993.55
2019-01-16T19:59:45.084Z,993.52
2019-01-16T20:00:47.457Z,993.50
2019-01-16T20:01:50.438Z,993.51
2019-01-16T20:02:52.881Z,993.53
2019-01-16T20:03:54.377Z,993.49
2019-01-16T20:04:57.234Z,993.45
2019-01-16T20:05:59.611Z,993.44
2019-01-16T20:07:02.490Z,993.40
2019-01-16T20:08:04.353Z,993.42
2019-01-16T20:09:05.765Z,993.35
2019-01-16T20:10:07.207Z,993.40
2019-01-16T20:11:09.247Z,993.38
2019-01-16T20:12:11.606Z,993.47
2019-01-16T20:13:15.339Z,993.44
2019-01-16T20:14:16.758Z,993.38
2019-01-16T20:15:19.811Z,993.36
2019-01-16T20:16:21.223Z,993.32
2019-01-16T20:17:23.663Z,993.30
2019-01-16T20:18:26.519Z,993.29
2019-01-16T20:19:29.846Z,993.30
2019-01-16T20:20:31.214Z,993.25
2019-01-16T20:21:33.121Z,993.20
2019-01-16T20:22:35.409Z,993.15
2019-01-16T20:23:37.496Z,993.14
2019-01-16T20:24:40.573Z,993.15
2019-01-16T20:25:42.758Z,993.16
2019-01-16T20:26:44.288Z,993.22
2019-01-16T20:27:46.535Z,993.21
2019-01-16T20:28:49.430Z,993.26
2019-01-16T20:29:51.788Z,993.26
2019-01-16T20:30:53.207Z,993.21
2019-01-16T20:31:54.616Z,993.23
2019-01-16T20:32:56.766Z,993.13
2019-01-16T20:33:58.889Z,993.25
2019-01-16T20:35:00.850Z,993.18
2019-01-16T20:36:03.436Z,993.12
2019-01-16T20:37:05.346Z,993.20
2019-01-16T20:38:06.208Z,993.18
2019-01-16T20:39:08.952Z,993.27
2019-01-16T20:40:13.420Z,993.25
2019-01-16T20:41:15.350Z,993.16
2019-01-16T20:42:16.180Z,993.18
2019-01-16T20:43:17.587Z,993.18
2019-01-16T20:44:19.685Z,993.27
2019-01-16T20:45:21.093Z,993.19
2019-01-16T20:46:23.243Z,993.18
2019-01-16T20:47:24.639Z,993.20
2019-01-16T20:48:26.046Z,993.16
2019-01-16T20:49:27.444Z,993.13
2019-01-16T20:50:29.849Z,993.28
2019-01-16T20:51:31.815Z,993.24
2019-01-16T20:52:33.209Z,993.23
2019-01-16T20:53:34.628Z,993.15
2019-01-16T20:54:36.036Z,993.22
2019-01-16T20:55:37.420Z,993.23
2019-01-16T20:56:39.765Z,993.13
2019-01-16T20:57:41.742Z,993.16
2019-01-16T20:58:43.731Z,993.21
2019-01-16T20:59:45.964Z,993.12
2019-01-16T21:00:47.365Z,993.06
2019-01-16T21:01:48.754Z,993.06
2019-01-16T21:02:50.170Z,992.99
2019-01-16T21:03:51.569Z,992.99
2019-01-16T21:04:52.964Z,992.99
2019-01-16T21:05:54.357Z,993.04
2019-01-16T21:06:55.764Z,992.99
2019-01-16T21:07:57.872Z,992.96
2019-01-16T21:08:59.260Z,992.91
2019-01-16T21:10:00.681Z,992.96
2019-01-16T21:11:02.089Z,992.96
2019-01-16T21:12:03.483Z,992.96
2019-01-16T21:13:06.295Z,992.92
2019-01-16T21:14:07.705Z,992.83
2019-01-16T21:15:09.108Z,992.84
2019-01-16T21:16:10.490Z,992.83
2019-01-16T21:17:11.882Z,992.87
2019-01-16T21:18:13.256Z,992.85
2019-01-16T21:19:14.643Z,992.89
2019-01-16T21:20:16.044Z,992.89
2019-01-16T21:21:17.430Z,992.82
2019-01-16T21:22:18.848Z,992.77
2019-01-16T21:23:23.833Z,992.75
2019-01-16T21:24:21.581Z,992.72
2019-01-16T21:25:22.970Z,992.67
2019-01-16T21:26:24.371Z,992.66
2019-01-16T21:27:25.747Z,992.62
2019-01-16T21:28:27.129Z,992.65
2019-01-16T21:29:28.514Z,992.54
2019-01-16T21:30:29.888Z,992.60
2019-01-16T21:31:31.274Z,992.61
2019-01-16T21:32:32.645Z,992.51
2019-01-16T21:33:34.028Z,992.61
2019-01-16T21:34:35.414Z,992.57
2019-01-16T21:35:36.828Z,992.55
2019-01-16T21:36:38.197Z,992.51
2019-01-16T21:37:39.570Z,992.54
2019-01-16T21:38:40.960Z,992.43
2019-01-16T21:39:42.344Z,992.44
2019-01-16T21:40:43.721Z,992.42
2019-01-16T21:41:45.104Z,992.41
2019-01-16T21:42:46.489Z,992.42
2019-01-16T21:43:47.865Z,992.38
2019-01-16T21:44:49.239Z,992.37
2019-01-16T21:45:50.621Z,992.33
2019-01-16T21:46:52.126Z,992.38
2019-01-16T21:47:53.495Z,992.31
2019-01-16T21:48:54.890Z,992.35
2019-01-16T21:49:56.272Z,992.38
2019-01-16T21:50:57.657Z,992.36
2019-01-16T21:51:59.045Z,992.39
2019-01-16T21:53:00.429Z,992.30
2019-01-16T21:54:01.803Z,992.32
2019-01-16T21:55:03.183Z,992.25
2019-01-16T21:56:04.526Z,992.30
2019-01-16T21:57:05.908Z,992.23
2019-01-16T21:58:07.348Z,992.22
2019-01-16T21:59:08.741Z,992.22
2019-01-16T22:00:10.126Z,992.11
2019-01-16T22:01:11.504Z,992.19
2019-01-16T22:02:12.886Z,992.14
2019-01-16T22:03:14.308Z,992.21
2019-01-16T22:04:15.690Z,992.19
2019-01-16T22:05:17.070Z,992.13
2019-01-16T22:06:18.454Z,992.12
2019-01-16T22:07:19.834Z,992.19
2019-01-16T22:08:21.219Z,992.21
2019-01-16T22:09:22.593Z,992.17
2019-01-16T22:10:23.969Z,992.20
2019-01-16T22:11:25.352Z,992.21
2019-01-16T22:12:26.733Z,992.17
2019-01-16T22:13:28.107Z,992.05
2019-01-16T22:14:29.487Z,992.14
2019-01-16T22:15:30.871Z,992.07
2019-01-16T22:16:32.279Z,992.05
2019-01-16T22:17:33.679Z,991.85
2019-01-16T22:18:35.059Z,991.84
2019-01-16T22:19:36.441Z,991.89
2019-01-16T22:20:37.822Z,991.92
2019-01-16T22:21:39.210Z,991.89
2019-01-16T22:22:40.595Z,991.85
2019-01-16T22:23:41.978Z,991.90
2019-01-16T22:24:43.353Z,991.88
2019-01-16T22:25:44.743Z,991.84
2019-01-16T22:26:46.124Z,991.72
2019-01-16T22:27:47.502Z,991.80
2019-01-16T22:28:48.878Z,991.68
2019-01-16T22:29:50.269Z,991.71
2019-01-16T22:30:51.662Z,991.69
2019-01-16T22:31:53.039Z,991.64
2019-01-16T22:32:54.423Z,991.63
2019-01-16T22:33:55.808Z,991.69
2019-01-16T22:34:57.179Z,991.70
2019-01-16T22:35:58.564Z,991.71
2019-01-16T22:36:59.946Z,991.70
2019-01-16T22:38:01.333Z,991.59
2019-01-16T22:39:02.713Z,991.67
2019-01-16T22:40:04.113Z,991.62
2019-01-16T22:41:05.511Z,991.63
2019-01-16T22:42:06.889Z,991.54
2019-01-16T22:43:08.269Z,991.48
2019-01-16T22:44:09.667Z,991.51
2019-01-16T22:45:11.045Z,991.50
2019-01-16T22:46:12.436Z,991.49
2019-01-16T22:47:13.831Z,991.52
2019-01-16T22:48:15.217Z,991.48
2019-01-16T22:49:16.610Z,991.57
2019-01-16T22:50:17.997Z,991.59
2019-01-16T22:51:19.392Z,991.60
2019-01-16T22:52:20.778Z,991.59
2019-01-16T22:53:22.162Z,991.53
2019-01-16T22:54:23.551Z,991.44
2019-01-16T22:55:24.950Z,991.35
2019-01-16T22:56:26.341Z,991.29
2019-01-16T22:57:27.725Z,991.33
2019-01-16T22:58:29.116Z,991.30
2019-01-16T22:59:30.502Z,991.37
2019-01-16T23:00:31.902Z,991.37
2019-01-16T23:01:33.298Z,991.33
2019-01-16T23:02:34.673Z,991.33
2019-01-16T23:03:36.063Z,991.33
2019-01-16T23:04:37.449Z,991.28
2019-01-16T23:05:38.844Z,991.26
2019-01-16T23:06:40.234Z,991.22
2019-01-16T23:07:41.607Z,991.12
2019-01-16T23:08:42.987Z,991.17
2019-01-16T23:09:44.364Z,991.14
2019-01-16T23:10:45.749Z,991.11
2019-01-16T23:11:47.130Z,991.03
2019-01-16T23:12:48.525Z,991.06
2019-01-16T23:13:49.916Z,991.06
2019-01-16T23:14:51.291Z,991.09
2019-01-16T23:15:52.671Z,991.02
2019-01-16T23:32:37.182Z,990.81
2019-01-16T23:33:38.606Z,990.77
2019-01-16T23:34:40.006Z,990.72
2019-01-16T23:35:41.419Z,990.68
2019-01-16T23:36:42.814Z,990.64
2019-01-16T23:37:44.234Z,990.60
2019-01-16T23:38:45.644Z,990.62
2019-01-16T23:39:47.055Z,990.61
2019-01-16T23:40:48.484Z,990.63
2019-01-16T23:41:49.851Z,990.60
2019-01-16T23:42:51.251Z,990.55
2019-01-16T23:43:52.650Z,990.53
2019-01-16T23:44:54.057Z,990.52
2019-01-16T23:45:55.479Z,990.53
2019-01-16T23:46:56.877Z,990.54
2019-01-16T23:47:58.306Z,990.54
2019-01-16T23:48:59.721Z,990.52
2019-01-16T23:50:01.129Z,990.42
2019-01-16T23:51:02.517Z,990.43
2019-01-16T23:52:03.905Z,990.46
2019-01-16T23:53:05.288Z,990.37
2019-01-16T23:54:06.736Z,990.34
2019-01-16T23:55:08.110Z,990.46
2019-01-16T23:56:09.536Z,990.50
2019-01-16T23:57:10.953Z,990.45
2019-01-16T23:58:12.368Z,990.40
2019-01-16T23:59:13.768Z,990.46
